Terminal Aerodrome Forecast
Issued by NWS Tuscon, AZ

Home | Current Version | Previous Version | Text Only | Print | Product List | Glossary On
Versions: 1 2 3 4 5 6 7 8 9 10 11 12 13
000
FTUS45 KTWC 261100
TAFDUG
TAF
KDUG 261125Z 2612/2712 34013KT P6SM -RA FEW025 BKN040
      TEMPO 2612/2615 6SM -RA BR BKN030
     FM261600 34007KT P6SM FEW030 SCT050
     FM262000 27011KT P6SM FEW050
     FM270400 VRB04KT P6SM SCT250=

USA.gov is the U.S. government's official web portal to all federal, state and local government web resources and services.